sensor_id;sensor_type;location;lat;lon;timestamp;P1;durP1;ratioP1;P2;durP2;ratioP2
18046;SDS011;9148;51.454;13.862;2022-08-03T00:00:04;1.77;;;1.02;;
18046;SDS011;9148;51.454;13.862;2022-08-03T00:02:31;1.05;;;0.93;;
18046;SDS011;9148;51.454;13.862;2022-08-03T00:04:57;1.73;;;1.27;;
18046;SDS011;9148;51.454;13.862;2022-08-03T00:07:22;1.10;;;0.95;;
18046;SDS011;9148;51.454;13.862;2022-08-03T00:09:48;0.70;;;0.70;;
18046;SDS011;9148;51.454;13.862;2022-08-03T00:12:14;1.48;;;1.17;;
18046;SDS011;9148;51.454;13.862;2022-08-03T00:14:40;1.65;;;1.00;;
18046;SDS011;9148;51.454;13.862;2022-08-03T00:17:06;1.52;;;1.42;;
18046;SDS011;9148;51.454;13.862;2022-08-03T00:19:32;2.53;;;1.73;;
18046;SDS011;9148;51.454;13.862;2022-08-03T00:21:58;1.40;;;1.10;;
18046;SDS011;9148;51.454;13.862;2022-08-03T00:24:23;1.98;;;1.05;;
18046;SDS011;9148;51.454;13.862;2022-08-03T00:26:49;2.03;;;1.35;;
18046;SDS011;9148;51.454;13.862;2022-08-03T00:29:15;1.80;;;1.25;;
18046;SDS011;9148;51.454;13.862;2022-08-03T00:31:40;1.00;;;0.82;;
18046;SDS011;9148;51.454;13.862;2022-08-03T00:34:06;0.70;;;0.70;;
18046;SDS011;9148;51.454;13.862;2022-08-03T00:36:32;2.13;;;1.20;;
18046;SDS011;9148;51.454;13.862;2022-08-03T00:38:57;0.85;;;0.82;;
18046;SDS011;9148;51.454;13.862;2022-08-03T00:41:23;1.92;;;1.17;;
18046;SDS011;9148;51.454;13.862;2022-08-03T00:43:49;0.88;;;0.88;;
18046;SDS011;9148;51.454;13.862;2022-08-03T00:46:15;1.17;;;1.05;;
18046;SDS011;9148;51.454;13.862;2022-08-03T00:48:40;2.05;;;1.02;;
18046;SDS011;9148;51.454;13.862;2022-08-03T00:51:06;1.80;;;0.90;;
18046;SDS011;9148;51.454;13.862;2022-08-03T00:53:33;1.30;;;1.20;;
18046;SDS011;9148;51.454;13.862;2022-08-03T00:56:00;1.38;;;1.27;;
18046;SDS011;9148;51.454;13.862;2022-08-03T00:58:25;1.88;;;1.10;;
18046;SDS011;9148;51.454;13.862;2022-08-03T01:00:51;1.45;;;1.10;;
18046;SDS011;9148;51.454;13.862;2022-08-03T01:03:17;1.35;;;1.00;;
18046;SDS011;9148;51.454;13.862;2022-08-03T01:08:43;1.88;;;1.15;;
18046;SDS011;9148;51.454;13.862;2022-08-03T01:14:17;1.40;;;1.30;;
18046;SDS011;9148;51.454;13.862;2022-08-03T01:16:56;0.93;;;0.93;;
18046;SDS011;9148;51.454;13.862;2022-08-03T01:19:39;1.17;;;1.00;;
18046;SDS011;9148;51.454;13.862;2022-08-03T01:22:22;1.25;;;1.20;;
18046;SDS011;9148;51.454;13.862;2022-08-03T01:28:21;1.27;;;1.17;;
18046;SDS011;9148;51.454;13.862;2022-08-03T01:31:07;1.48;;;1.00;;
18046;SDS011;9148;51.454;13.862;2022-08-03T01:33:42;1.48;;;1.38;;
18046;SDS011;9148;51.454;13.862;2022-08-03T01:36:17;2.00;;;1.15;;
18046;SDS011;9148;51.454;13.862;2022-08-03T01:38:48;1.25;;;1.15;;
18046;SDS011;9148;51.454;13.862;2022-08-03T01:41:24;1.55;;;1.42;;
18046;SDS011;9148;51.454;13.862;2022-08-03T01:43:55;2.00;;;1.52;;
18046;SDS011;9148;51.454;13.862;2022-08-03T01:46:24;1.40;;;1.30;;
18046;SDS011;9148;51.454;13.862;2022-08-03T01:48:51;2.55;;;1.58;;
18046;SDS011;9148;51.454;13.862;2022-08-03T01:51:19;1.40;;;1.30;;
18046;SDS011;9148;51.454;13.862;2022-08-03T01:53:47;1.73;;;1.50;;
18046;SDS011;9148;51.454;13.862;2022-08-03T01:56:15;1.52;;;1.00;;
18046;SDS011;9148;51.454;13.862;2022-08-03T01:58:43;1.90;;;1.52;;
18046;SDS011;9148;51.454;13.862;2022-08-03T02:01:10;1.98;;;1.23;;
18046;SDS011;9148;51.454;13.862;2022-08-03T02:03:38;1.33;;;1.23;;
18046;SDS011;9148;51.454;13.862;2022-08-03T02:06:08;3.10;;;1.67;;
18046;SDS011;9148;51.454;13.862;2022-08-03T02:08:35;4.32;;;1.35;;
18046;SDS011;9148;51.454;13.862;2022-08-03T02:11:03;2.90;;;1.55;;
18046;SDS011;9148;51.454;13.862;2022-08-03T02:13:31;1.25;;;1.15;;
18046;SDS011;9148;51.454;13.862;2022-08-03T02:15:58;1.95;;;1.77;;
18046;SDS011;9148;51.454;13.862;2022-08-03T02:18:27;1.40;;;1.13;;
18046;SDS011;9148;51.454;13.862;2022-08-03T02:20:53;2.25;;;1.63;;
18046;SDS011;9148;51.454;13.862;2022-08-03T02:23:20;2.30;;;1.20;;
18046;SDS011;9148;51.454;13.862;2022-08-03T02:25:47;1.63;;;1.40;;
18046;SDS011;9148;51.454;13.862;2022-08-03T02:28:18;1.23;;;1.10;;
18046;SDS011;9148;51.454;13.862;2022-08-03T02:30:49;1.83;;;1.55;;
18046;SDS011;9148;51.454;13.862;2022-08-03T02:33:20;2.15;;;1.35;;
18046;SDS011;9148;51.454;13.862;2022-08-03T02:35:54;1.65;;;1.50;;
18046;SDS011;9148;51.454;13.862;2022-08-03T02:38:25;1.67;;;1.52;;
18046;SDS011;9148;51.454;13.862;2022-08-03T02:41:02;2.13;;;1.42;;
18046;SDS011;9148;51.454;13.862;2022-08-03T02:43:32;2.33;;;1.77;;
18046;SDS011;9148;51.454;13.862;2022-08-03T02:46:00;1.70;;;1.55;;
18046;SDS011;9148;51.454;13.862;2022-08-03T02:48:26;1.33;;;1.10;;
18046;SDS011;9148;51.454;13.862;2022-08-03T02:50:56;1.40;;;1.30;;
18046;SDS011;9148;51.454;13.862;2022-08-03T02:53:23;2.70;;;1.52;;
18046;SDS011;9148;51.454;13.862;2022-08-03T02:55:51;1.45;;;1.35;;
18046;SDS011;9148;51.454;13.862;2022-08-03T02:58:19;2.35;;;1.42;;
18046;SDS011;9148;51.454;13.862;2022-08-03T03:00:47;2.30;;;1.40;;
18046;SDS011;9148;51.454;13.862;2022-08-03T03:03:15;1.70;;;1.60;;
18046;SDS011;9148;51.454;13.862;2022-08-03T03:05:42;1.27;;;1.17;;
18046;SDS011;9148;51.454;13.862;2022-08-03T03:08:13;1.70;;;1.60;;
18046;SDS011;9148;51.454;13.862;2022-08-03T03:10:41;1.55;;;1.45;;
18046;SDS011;9148;51.454;13.862;2022-08-03T03:13:08;1.70;;;1.40;;
18046;SDS011;9148;51.454;13.862;2022-08-03T03:15:35;2.05;;;1.27;;
18046;SDS011;9148;51.454;13.862;2022-08-03T03:18:04;2.75;;;1.65;;
18046;SDS011;9148;51.454;13.862;2022-08-03T03:20:31;1.88;;;1.77;;
18046;SDS011;9148;51.454;13.862;2022-08-03T03:23:00;2.42;;;1.30;;
18046;SDS011;9148;51.454;13.862;2022-08-03T03:25:27;3.17;;;1.50;;
18046;SDS011;9148;51.454;13.862;2022-08-03T03:27:55;5.35;;;1.98;;
18046;SDS011;9148;51.454;13.862;2022-08-03T03:30:24;2.10;;;1.75;;
18046;SDS011;9148;51.454;13.862;2022-08-03T03:32:50;1.58;;;1.48;;
18046;SDS011;9148;51.454;13.862;2022-08-03T03:35:16;2.42;;;1.65;;
18046;SDS011;9148;51.454;13.862;2022-08-03T03:37:42;1.40;;;1.27;;
18046;SDS011;9148;51.454;13.862;2022-08-03T03:40:08;1.55;;;1.27;;
18046;SDS011;9148;51.454;13.862;2022-08-03T03:42:35;4.57;;;2.30;;
18046;SDS011;9148;51.454;13.862;2022-08-03T03:45:02;1.80;;;1.63;;
18046;SDS011;9148;51.454;13.862;2022-08-03T03:47:30;1.73;;;1.38;;
18046;SDS011;9148;51.454;13.862;2022-08-03T03:49:56;1.63;;;1.50;;
18046;SDS011;9148;51.454;13.862;2022-08-03T03:52:22;2.03;;;1.55;;
18046;SDS011;9148;51.454;13.862;2022-08-03T03:54:48;1.23;;;1.02;;
18046;SDS011;9148;51.454;13.862;2022-08-03T03:57:14;1.48;;;1.38;;
18046;SDS011;9148;51.454;13.862;2022-08-03T03:59:40;1.45;;;1.35;;
18046;SDS011;9148;51.454;13.862;2022-08-03T04:02:06;1.23;;;1.13;;
18046;SDS011;9148;51.454;13.862;2022-08-03T04:04:34;1.05;;;0.98;;
18046;SDS011;9148;51.454;13.862;2022-08-03T04:07:19;1.88;;;1.33;;
18046;SDS011;9148;51.454;13.862;2022-08-03T04:10:09;3.00;;;2.00;;
18046;SDS011;9148;51.454;13.862;2022-08-03T04:13:00;1.60;;;1.50;;
18046;SDS011;9148;51.454;13.862;2022-08-03T04:15:28;1.83;;;1.60;;
18046;SDS011;9148;51.454;13.862;2022-08-03T04:17:57;1.58;;;1.48;;
18046;SDS011;9148;51.454;13.862;2022-08-03T04:20:25;2.65;;;1.13;;
18046;SDS011;9148;51.454;13.862;2022-08-03T04:22:54;1.60;;;1.50;;
18046;SDS011;9148;51.454;13.862;2022-08-03T04:25:24;1.70;;;1.60;;
18046;SDS011;9148;51.454;13.862;2022-08-03T04:27:54;1.70;;;1.60;;
18046;SDS011;9148;51.454;13.862;2022-08-03T04:30:23;2.00;;;1.42;;
18046;SDS011;9148;51.454;13.862;2022-08-03T04:32:52;1.40;;;1.30;;
18046;SDS011;9148;51.454;13.862;2022-08-03T04:35:20;1.88;;;1.20;;
18046;SDS011;9148;51.454;13.862;2022-08-03T04:37:48;1.85;;;1.15;;
18046;SDS011;9148;51.454;13.862;2022-08-03T04:40:21;2.40;;;1.20;;
18046;SDS011;9148;51.454;13.862;2022-08-03T04:42:52;1.52;;;1.40;;
18046;SDS011;9148;51.454;13.862;2022-08-03T04:45:19;2.45;;;2.03;;
18046;SDS011;9148;51.454;13.862;2022-08-03T04:47:45;2.47;;;2.25;;
18046;SDS011;9148;51.454;13.862;2022-08-03T04:50:11;2.60;;;1.77;;
18046;SDS011;9148;51.454;13.862;2022-08-03T04:52:37;1.90;;;1.38;;
18046;SDS011;9148;51.454;13.862;2022-08-03T04:55:04;1.80;;;1.70;;
18046;SDS011;9148;51.454;13.862;2022-08-03T04:57:30;2.40;;;1.77;;
18046;SDS011;9148;51.454;13.862;2022-08-03T04:59:56;1.60;;;1.25;;
18046;SDS011;9148;51.454;13.862;2022-08-03T05:02:22;2.42;;;1.73;;
18046;SDS011;9148;51.454;13.862;2022-08-03T05:04:48;1.75;;;1.20;;
18046;SDS011;9148;51.454;13.862;2022-08-03T05:07:14;1.15;;;1.05;;
18046;SDS011;9148;51.454;13.862;2022-08-03T05:09:41;2.08;;;1.70;;
18046;SDS011;9148;51.454;13.862;2022-08-03T05:12:07;2.08;;;1.77;;
18046;SDS011;9148;51.454;13.862;2022-08-03T05:14:34;1.83;;;1.45;;
18046;SDS011;9148;51.454;13.862;2022-08-03T05:17:04;1.98;;;1.77;;
18046;SDS011;9148;51.454;13.862;2022-08-03T05:19:30;3.50;;;1.88;;
18046;SDS011;9148;51.454;13.862;2022-08-03T05:21:56;1.65;;;1.45;;
18046;SDS011;9148;51.454;13.862;2022-08-03T05:24:22;1.63;;;1.52;;
18046;SDS011;9148;51.454;13.862;2022-08-03T05:26:48;1.52;;;1.40;;
18046;SDS011;9148;51.454;13.862;2022-08-03T05:29:14;2.35;;;1.80;;
18046;SDS011;9148;51.454;13.862;2022-08-03T05:31:40;4.63;;;1.52;;
18046;SDS011;9148;51.454;13.862;2022-08-03T05:34:05;1.42;;;1.33;;
18046;SDS011;9148;51.454;13.862;2022-08-03T05:36:31;2.90;;;1.83;;
18046;SDS011;9148;51.454;13.862;2022-08-03T05:38:57;2.35;;;2.15;;
18046;SDS011;9148;51.454;13.862;2022-08-03T05:41:22;2.25;;;1.40;;
18046;SDS011;9148;51.454;13.862;2022-08-03T05:43:48;1.95;;;1.73;;
18046;SDS011;9148;51.454;13.862;2022-08-03T05:46:15;2.00;;;1.55;;
18046;SDS011;9148;51.454;13.862;2022-08-03T05:48:41;1.90;;;1.70;;
18046;SDS011;9148;51.454;13.862;2022-08-03T05:51:07;2.33;;;1.75;;
18046;SDS011;9148;51.454;13.862;2022-08-03T05:53:35;2.17;;;1.33;;
18046;SDS011;9148;51.454;13.862;2022-08-03T05:56:01;1.30;;;1.20;;
18046;SDS011;9148;51.454;13.862;2022-08-03T05:58:28;5.63;;;1.83;;
18046;SDS011;9148;51.454;13.862;2022-08-03T06:00:53;2.47;;;1.50;;
18046;SDS011;9148;51.454;13.862;2022-08-03T06:03:19;2.90;;;1.25;;
18046;SDS011;9148;51.454;13.862;2022-08-03T06:05:45;1.77;;;1.50;;
18046;SDS011;9148;51.454;13.862;2022-08-03T06:08:11;1.50;;;1.40;;
18046;SDS011;9148;51.454;13.862;2022-08-03T06:10:37;1.70;;;0.95;;
18046;SDS011;9148;51.454;13.862;2022-08-03T06:13:03;1.48;;;1.40;;
18046;SDS011;9148;51.454;13.862;2022-08-03T06:15:29;1.63;;;1.52;;
18046;SDS011;9148;51.454;13.862;2022-08-03T06:17:57;1.88;;;1.63;;
18046;SDS011;9148;51.454;13.862;2022-08-03T06:20:23;1.52;;;1.42;;
18046;SDS011;9148;51.454;13.862;2022-08-03T06:22:49;1.88;;;1.17;;
18046;SDS011;9148;51.454;13.862;2022-08-03T06:25:14;2.80;;;1.10;;
18046;SDS011;9148;51.454;13.862;2022-08-03T06:27:40;1.80;;;1.00;;
18046;SDS011;9148;51.454;13.862;2022-08-03T06:30:07;1.95;;;1.73;;
18046;SDS011;9148;51.454;13.862;2022-08-03T06:32:36;1.27;;;0.93;;
18046;SDS011;9148;51.454;13.862;2022-08-03T06:35:03;1.60;;;1.33;;
18046;SDS011;9148;51.454;13.862;2022-08-03T06:37:30;1.67;;;1.20;;
18046;SDS011;9148;51.454;13.862;2022-08-03T06:39:56;2.25;;;1.70;;
18046;SDS011;9148;51.454;13.862;2022-08-03T06:42:21;1.08;;;0.95;;
18046;SDS011;9148;51.454;13.862;2022-08-03T06:44:47;2.28;;;1.65;;
18046;SDS011;9148;51.454;13.862;2022-08-03T06:47:13;2.40;;;1.45;;
18046;SDS011;9148;51.454;13.862;2022-08-03T06:49:38;1.25;;;1.15;;
18046;SDS011;9148;51.454;13.862;2022-08-03T06:52:05;1.00;;;1.00;;
18046;SDS011;9148;51.454;13.862;2022-08-03T06:54:31;0.93;;;0.93;;
18046;SDS011;9148;51.454;13.862;2022-08-03T06:56:56;1.25;;;1.15;;
18046;SDS011;9148;51.454;13.862;2022-08-03T06:59:22;1.92;;;1.52;;
18046;SDS011;9148;51.454;13.862;2022-08-03T07:01:48;1.30;;;1.20;;
18046;SDS011;9148;51.454;13.862;2022-08-03T07:04:13;4.65;;;1.65;;
18046;SDS011;9148;51.454;13.862;2022-08-03T07:06:39;2.05;;;1.55;;
18046;SDS011;9148;51.454;13.862;2022-08-03T07:09:05;1.63;;;1.52;;
18046;SDS011;9148;51.454;13.862;2022-08-03T07:11:30;1.65;;;1.15;;
18046;SDS011;9148;51.454;13.862;2022-08-03T07:13:56;1.58;;;1.00;;
18046;SDS011;9148;51.454;13.862;2022-08-03T07:16:22;1.77;;;1.40;;
18046;SDS011;9148;51.454;13.862;2022-08-03T07:18:47;2.90;;;1.30;;
18046;SDS011;9148;51.454;13.862;2022-08-03T07:21:13;1.40;;;1.13;;
18046;SDS011;9148;51.454;13.862;2022-08-03T07:23:40;5.22;;;1.17;;
18046;SDS011;9148;51.454;13.862;2022-08-03T07:26:06;1.58;;;1.48;;
18046;SDS011;9148;51.454;13.862;2022-08-03T07:28:32;1.10;;;1.00;;
18046;SDS011;9148;51.454;13.862;2022-08-03T07:30:58;1.80;;;1.10;;
18046;SDS011;9148;51.454;13.862;2022-08-03T07:33:23;1.58;;;1.15;;
18046;SDS011;9148;51.454;13.862;2022-08-03T07:35:49;1.55;;;1.45;;
18046;SDS011;9148;51.454;13.862;2022-08-03T07:38:15;1.95;;;1.50;;
18046;SDS011;9148;51.454;13.862;2022-08-03T07:40:41;1.25;;;0.93;;
18046;SDS011;9148;51.454;13.862;2022-08-03T07:43:07;1.35;;;1.25;;
18046;SDS011;9148;51.454;13.862;2022-08-03T07:45:33;1.15;;;1.05;;
18046;SDS011;9148;51.454;13.862;2022-08-03T07:47:59;2.10;;;1.17;;
18046;SDS011;9148;51.454;13.862;2022-08-03T07:50:25;8.00;;;1.67;;
18046;SDS011;9148;51.454;13.862;2022-08-03T07:52:51;1.40;;;1.10;;
18046;SDS011;9148;51.454;13.862;2022-08-03T07:55:19;1.40;;;1.23;;
18046;SDS011;9148;51.454;13.862;2022-08-03T07:57:47;2.22;;;1.38;;
18046;SDS011;9148;51.454;13.862;2022-08-03T08:00:34;1.25;;;1.13;;
18046;SDS011;9148;51.454;13.862;2022-08-03T08:03:00;1.63;;;1.13;;
18046;SDS011;9148;51.454;13.862;2022-08-03T08:05:26;1.23;;;1.13;;
18046;SDS011;9148;51.454;13.862;2022-08-03T08:07:53;2.33;;;1.23;;
18046;SDS011;9148;51.454;13.862;2022-08-03T08:10:19;1.05;;;0.95;;
18046;SDS011;9148;51.454;13.862;2022-08-03T08:12:45;1.42;;;1.33;;
18046;SDS011;9148;51.454;13.862;2022-08-03T08:15:11;1.00;;;0.90;;
18046;SDS011;9148;51.454;13.862;2022-08-03T08:17:41;0.93;;;0.93;;
18046;SDS011;9148;51.454;13.862;2022-08-03T08:20:10;2.33;;;1.13;;
18046;SDS011;9148;51.454;13.862;2022-08-03T08:22:39;1.33;;;1.02;;
18046;SDS011;9148;51.454;13.862;2022-08-03T08:25:05;0.90;;;0.73;;
18046;SDS011;9148;51.454;13.862;2022-08-03T08:27:31;0.82;;;0.82;;
18046;SDS011;9148;51.454;13.862;2022-08-03T08:29:56;1.48;;;1.05;;
18046;SDS011;9148;51.454;13.862;2022-08-03T08:32:22;2.55;;;1.00;;
18046;SDS011;9148;51.454;13.862;2022-08-03T08:34:48;2.42;;;1.08;;
18046;SDS011;9148;51.454;13.862;2022-08-03T08:37:13;1.20;;;1.00;;
18046;SDS011;9148;51.454;13.862;2022-08-03T08:39:39;2.33;;;1.00;;
18046;SDS011;9148;51.454;13.862;2022-08-03T08:42:05;1.30;;;1.20;;
18046;SDS011;9148;51.454;13.862;2022-08-03T08:44:30;1.15;;;1.05;;
18046;SDS011;9148;51.454;13.862;2022-08-03T08:46:56;1.70;;;1.23;;
18046;SDS011;9148;51.454;13.862;2022-08-03T08:49:27;1.75;;;0.88;;
18046;SDS011;9148;51.454;13.862;2022-08-03T08:51:53;2.05;;;1.02;;
18046;SDS011;9148;51.454;13.862;2022-08-03T08:54:22;1.20;;;1.00;;
18046;SDS011;9148;51.454;13.862;2022-08-03T08:56:51;0.90;;;0.88;;
18046;SDS011;9148;51.454;13.862;2022-08-03T08:59:18;1.70;;;1.40;;
18046;SDS011;9148;51.454;13.862;2022-08-03T09:01:45;0.75;;;0.75;;
18046;SDS011;9148;51.454;13.862;2022-08-03T09:04:11;1.65;;;0.98;;
18046;SDS011;9148;51.454;13.862;2022-08-03T09:06:37;1.20;;;1.02;;
18046;SDS011;9148;51.454;13.862;2022-08-03T09:09:04;1.00;;;0.75;;
18046;SDS011;9148;51.454;13.862;2022-08-03T09:11:30;0.75;;;0.75;;
18046;SDS011;9148;51.454;13.862;2022-08-03T09:13:57;1.55;;;1.10;;
18046;SDS011;9148;51.454;13.862;2022-08-03T09:16:23;0.98;;;0.88;;
18046;SDS011;9148;51.454;13.862;2022-08-03T09:18:50;1.70;;;1.17;;
18046;SDS011;9148;51.454;13.862;2022-08-03T09:21:22;1.70;;;1.02;;
18046;SDS011;9148;51.454;13.862;2022-08-03T09:23:54;1.00;;;0.93;;
18046;SDS011;9148;51.454;13.862;2022-08-03T09:26:25;0.82;;;0.82;;
18046;SDS011;9148;51.454;13.862;2022-08-03T09:31:41;1.30;;;0.90;;
18046;SDS011;9148;51.454;13.862;2022-08-03T09:34:10;1.10;;;0.80;;
18046;SDS011;9148;51.454;13.862;2022-08-03T09:36:41;0.85;;;0.73;;
18046;SDS011;9148;51.454;13.862;2022-08-03T09:39:13;1.90;;;1.10;;
18046;SDS011;9148;51.454;13.862;2022-08-03T09:41:40;1.30;;;1.02;;
18046;SDS011;9148;51.454;13.862;2022-08-03T09:44:12;0.95;;;0.63;;
18046;SDS011;9148;51.454;13.862;2022-08-03T09:46:48;1.30;;;0.80;;
18046;SDS011;9148;51.454;13.862;2022-08-03T09:49:22;1.00;;;0.77;;
18046;SDS011;9148;51.454;13.862;2022-08-03T09:51:48;0.80;;;0.80;;
18046;SDS011;9148;51.454;13.862;2022-08-03T09:54:27;0.75;;;0.63;;
18046;SDS011;9148;51.454;13.862;2022-08-03T09:56:55;1.23;;;0.80;;
18046;SDS011;9148;51.454;13.862;2022-08-03T09:59:23;0.68;;;0.68;;
18046;SDS011;9148;51.454;13.862;2022-08-03T10:01:55;0.90;;;0.80;;
18046;SDS011;9148;51.454;13.862;2022-08-03T10:04:22;1.58;;;1.42;;
18046;SDS011;9148;51.454;13.862;2022-08-03T10:07:02;1.90;;;0.88;;
18046;SDS011;9148;51.454;13.862;2022-08-03T10:09:30;1.40;;;1.17;;
18046;SDS011;9148;51.454;13.862;2022-08-03T10:11:56;0.95;;;0.80;;
18046;SDS011;9148;51.454;13.862;2022-08-03T10:14:31;1.70;;;0.93;;
18046;SDS011;9148;51.454;13.862;2022-08-03T10:16:57;1.05;;;0.60;;
18046;SDS011;9148;51.454;13.862;2022-08-03T10:19:23;1.20;;;0.90;;
18046;SDS011;9148;51.454;13.862;2022-08-03T10:21:52;0.75;;;0.75;;
18046;SDS011;9148;51.454;13.862;2022-08-03T10:24:25;1.17;;;1.08;;
18046;SDS011;9148;51.454;13.862;2022-08-03T10:27:03;1.05;;;0.77;;
18046;SDS011;9148;51.454;13.862;2022-08-03T10:29:34;0.80;;;0.80;;
18046;SDS011;9148;51.454;13.862;2022-08-03T10:32:03;4.35;;;0.82;;
18046;SDS011;9148;51.454;13.862;2022-08-03T10:34:36;0.85;;;0.50;;
18046;SDS011;9148;51.454;13.862;2022-08-03T10:37:07;1.23;;;0.75;;
18046;SDS011;9148;51.454;13.862;2022-08-03T10:39:36;1.15;;;0.77;;
18046;SDS011;9148;51.454;13.862;2022-08-03T10:42:02;0.98;;;0.75;;
18046;SDS011;9148;51.454;13.862;2022-08-03T10:44:32;2.85;;;0.73;;
18046;SDS011;9148;51.454;13.862;2022-08-03T10:47:03;0.93;;;0.60;;
18046;SDS011;9148;51.454;13.862;2022-08-03T10:49:30;2.08;;;0.73;;
18046;SDS011;9148;51.454;13.862;2022-08-03T10:51:56;0.80;;;0.70;;
18046;SDS011;9148;51.454;13.862;2022-08-03T10:54:36;1.33;;;0.70;;
18046;SDS011;9148;51.454;13.862;2022-08-03T11:00:24;1.77;;;0.70;;
18046;SDS011;9148;51.454;13.862;2022-08-03T11:03:05;0.60;;;0.60;;
18046;SDS011;9148;51.454;13.862;2022-08-03T11:05:37;1.20;;;0.63;;
18046;SDS011;9148;51.454;13.862;2022-08-03T11:10:56;1.08;;;0.60;;
18046;SDS011;9148;51.454;13.862;2022-08-03T11:13:26;0.60;;;0.60;;
18046;SDS011;9148;51.454;13.862;2022-08-03T11:15:56;0.47;;;0.40;;
18046;SDS011;9148;51.454;13.862;2022-08-03T11:18:25;0.95;;;0.68;;
18046;SDS011;9148;51.454;13.862;2022-08-03T11:20:51;0.93;;;0.88;;
18046;SDS011;9148;51.454;13.862;2022-08-03T11:26:13;1.02;;;0.70;;
18046;SDS011;9148;51.454;13.862;2022-08-03T11:28:43;0.85;;;0.57;;
18046;SDS011;9148;51.454;13.862;2022-08-03T11:34:02;1.42;;;0.75;;
18046;SDS011;9148;51.454;13.862;2022-08-03T11:39:47;0.93;;;0.50;;
18046;SDS011;9148;51.454;13.862;2022-08-03T11:44:47;0.65;;;0.50;;
18046;SDS011;9148;51.454;13.862;2022-08-03T11:47:17;0.50;;;0.50;;
18046;SDS011;9148;51.454;13.862;2022-08-03T11:49:48;1.27;;;0.70;;
18046;SDS011;9148;51.454;13.862;2022-08-03T11:52:16;0.95;;;0.82;;
18046;SDS011;9148;51.454;13.862;2022-08-03T11:54:43;1.33;;;0.60;;
18046;SDS011;9148;51.454;13.862;2022-08-03T11:57:09;1.23;;;0.93;;
18046;SDS011;9148;51.454;13.862;2022-08-03T11:59:36;0.93;;;0.77;;
18046;SDS011;9148;51.454;13.862;2022-08-03T12:02:05;0.60;;;0.60;;
18046;SDS011;9148;51.454;13.862;2022-08-03T12:04:48;0.82;;;0.65;;
18046;SDS011;9148;51.454;13.862;2022-08-03T12:07:22;0.75;;;0.60;;
18046;SDS011;9148;51.454;13.862;2022-08-03T12:10:07;0.73;;;0.73;;
18046;SDS011;9148;51.454;13.862;2022-08-03T12:12:38;0.50;;;0.50;;
18046;SDS011;9148;51.454;13.862;2022-08-03T12:15:06;1.27;;;0.70;;
18046;SDS011;9148;51.454;13.862;2022-08-03T12:17:33;5.43;;;0.75;;
18046;SDS011;9148;51.454;13.862;2022-08-03T12:20:01;0.70;;;0.70;;
18046;SDS011;9148;51.454;13.862;2022-08-03T12:22:30;0.90;;;0.47;;
18046;SDS011;9148;51.454;13.862;2022-08-03T12:25:01;0.65;;;0.60;;
18046;SDS011;9148;51.454;13.862;2022-08-03T12:27:32;1.15;;;0.40;;
18046;SDS011;9148;51.454;13.862;2022-08-03T12:29:59;0.95;;;0.80;;
18046;SDS011;9148;51.454;13.862;2022-08-03T12:32:28;1.83;;;0.47;;
18046;SDS011;9148;51.454;13.862;2022-08-03T12:34:55;1.75;;;0.50;;
18046;SDS011;9148;51.454;13.862;2022-08-03T12:37:28;0.57;;;0.40;;
18046;SDS011;9148;51.454;13.862;2022-08-03T12:39:58;0.93;;;0.40;;
18046;SDS011;9148;51.454;13.862;2022-08-03T12:42:35;0.68;;;0.50;;
18046;SDS011;9148;51.454;13.862;2022-08-03T12:45:21;1.00;;;0.60;;
18046;SDS011;9148;51.454;13.862;2022-08-03T12:47:50;0.68;;;0.65;;
18046;SDS011;9148;51.454;13.862;2022-08-03T12:50:25;1.15;;;0.50;;
18046;SDS011;9148;51.454;13.862;2022-08-03T12:52:56;0.60;;;0.50;;
18046;SDS011;9148;51.454;13.862;2022-08-03T12:55:24;0.47;;;0.40;;
18046;SDS011;9148;51.454;13.862;2022-08-03T12:57:57;0.43;;;0.43;;
18046;SDS011;9148;51.454;13.862;2022-08-03T13:00:30;0.38;;;0.38;;
18046;SDS011;9148;51.454;13.862;2022-08-03T13:02:59;0.70;;;0.70;;
18046;SDS011;9148;51.454;13.862;2022-08-03T13:05:31;1.58;;;0.80;;
18046;SDS011;9148;51.454;13.862;2022-08-03T13:08:17;0.85;;;0.60;;
18046;SDS011;9148;51.454;13.862;2022-08-03T13:10:47;0.85;;;0.60;;
18046;SDS011;9148;51.454;13.862;2022-08-03T13:13:13;0.55;;;0.40;;
18046;SDS011;9148;51.454;13.862;2022-08-03T13:15:39;7.10;;;0.80;;
18046;SDS011;9148;51.454;13.862;2022-08-03T13:18:05;0.40;;;0.40;;
18046;SDS011;9148;51.454;13.862;2022-08-03T13:20:31;0.30;;;0.30;;
18046;SDS011;9148;51.454;13.862;2022-08-03T13:22:57;0.55;;;0.50;;
18046;SDS011;9148;51.454;13.862;2022-08-03T13:25:23;0.73;;;0.50;;
18046;SDS011;9148;51.454;13.862;2022-08-03T13:27:49;0.40;;;0.40;;
18046;SDS011;9148;51.454;13.862;2022-08-03T13:30:16;0.55;;;0.55;;
18046;SDS011;9148;51.454;13.862;2022-08-03T13:32:42;1.33;;;0.50;;
18046;SDS011;9148;51.454;13.862;2022-08-03T13:35:09;0.50;;;0.50;;
18046;SDS011;9148;51.454;13.862;2022-08-03T13:37:35;0.35;;;0.35;;
18046;SDS011;9148;51.454;13.862;2022-08-03T13:40:03;0.85;;;0.50;;
18046;SDS011;9148;51.454;13.862;2022-08-03T13:42:31;0.80;;;0.47;;
18046;SDS011;9148;51.454;13.862;2022-08-03T13:44:59;0.50;;;0.50;;
18046;SDS011;9148;51.454;13.862;2022-08-03T13:47:25;0.77;;;0.63;;
18046;SDS011;9148;51.454;13.862;2022-08-03T13:49:52;1.08;;;0.77;;
18046;SDS011;9148;51.454;13.862;2022-08-03T13:52:18;0.40;;;0.40;;
18046;SDS011;9148;51.454;13.862;2022-08-03T13:54:44;1.08;;;0.57;;
18046;SDS011;9148;51.454;13.862;2022-08-03T13:57:10;0.47;;;0.47;;
18046;SDS011;9148;51.454;13.862;2022-08-03T13:59:35;1.25;;;0.60;;
18046;SDS011;9148;51.454;13.862;2022-08-03T14:02:02;0.45;;;0.45;;
18046;SDS011;9148;51.454;13.862;2022-08-03T14:04:28;1.73;;;0.52;;
18046;SDS011;9148;51.454;13.862;2022-08-03T14:06:54;1.15;;;0.52;;
18046;SDS011;9148;51.454;13.862;2022-08-03T14:09:20;0.45;;;0.40;;
18046;SDS011;9148;51.454;13.862;2022-08-03T14:11:46;0.85;;;0.32;;
18046;SDS011;9148;51.454;13.862;2022-08-03T14:14:11;0.68;;;0.35;;
18046;SDS011;9148;51.454;13.862;2022-08-03T14:16:37;0.88;;;0.47;;
18046;SDS011;9148;51.454;13.862;2022-08-03T14:19:04;0.65;;;0.52;;
18046;SDS011;9148;51.454;13.862;2022-08-03T14:21:30;0.45;;;0.40;;
18046;SDS011;9148;51.454;13.862;2022-08-03T14:23:57;0.55;;;0.35;;
18046;SDS011;9148;51.454;13.862;2022-08-03T14:26:23;0.65;;;0.40;;
18046;SDS011;9148;51.454;13.862;2022-08-03T14:28:48;0.52;;;0.50;;
18046;SDS011;9148;51.454;13.862;2022-08-03T14:31:14;0.38;;;0.38;;
18046;SDS011;9148;51.454;13.862;2022-08-03T14:33:40;0.40;;;0.35;;
18046;SDS011;9148;51.454;13.862;2022-08-03T14:36:06;3.45;;;0.50;;
18046;SDS011;9148;51.454;13.862;2022-08-03T14:38:32;0.63;;;0.40;;
18046;SDS011;9148;51.454;13.862;2022-08-03T14:40:58;0.68;;;0.68;;
18046;SDS011;9148;51.454;13.862;2022-08-03T14:43:23;0.52;;;0.50;;
18046;SDS011;9148;51.454;13.862;2022-08-03T14:45:49;0.80;;;0.80;;
18046;SDS011;9148;51.454;13.862;2022-08-03T14:48:21;0.50;;;0.40;;
18046;SDS011;9148;51.454;13.862;2022-08-03T14:50:48;0.73;;;0.60;;
18046;SDS011;9148;51.454;13.862;2022-08-03T14:53:14;1.30;;;0.65;;
18046;SDS011;9148;51.454;13.862;2022-08-03T14:55:41;0.52;;;0.45;;
18046;SDS011;9148;51.454;13.862;2022-08-03T14:58:07;1.08;;;0.65;;
18046;SDS011;9148;51.454;13.862;2022-08-03T15:00:33;0.60;;;0.40;;
18046;SDS011;9148;51.454;13.862;2022-08-03T15:03:00;0.55;;;0.38;;
18046;SDS011;9148;51.454;13.862;2022-08-03T15:05:27;1.50;;;0.55;;
18046;SDS011;9148;51.454;13.862;2022-08-03T15:07:52;0.10;;;0.10;;
18046;SDS011;9148;51.454;13.862;2022-08-03T15:10:18;0.20;;;0.20;;
18046;SDS011;9148;51.454;13.862;2022-08-03T15:12:44;0.50;;;0.40;;
18046;SDS011;9148;51.454;13.862;2022-08-03T15:15:10;0.57;;;0.43;;
18046;SDS011;9148;51.454;13.862;2022-08-03T15:17:36;1.73;;;0.70;;
18046;SDS011;9148;51.454;13.862;2022-08-03T15:20:02;2.67;;;0.47;;
18046;SDS011;9148;51.454;13.862;2022-08-03T15:22:29;0.50;;;0.45;;